Time;durP1;ratioP1;P1;durP2;ratioP2;P2;SDS_P1;SDS_P2;PMS_P1;PMS_P2;Temp;Humidity;BMP_temperature;BMP_pressure;BME280_temperature;BME280_humidity;BME280_pressure;Samples;Min_cycle;Max_cycle;Signal;HPM_P1;HPM_P2
2020/12/06 00:00:17;;;;;;;1999.90;999.90;;;3.80;99.90;;;;;;4985830;28;20218;-85
2020/12/06 00:02:43;;;;;;;1999.90;999.90;;;3.80;99.90;;;;;;4984749;28;20815;-86
2020/12/06 00:05:10;;;;;;;1999.90;999.90;;;3.80;99.90;;;;;;4984195;28;20182;-86
2020/12/06 00:07:39;;;;;;;1999.90;999.90;;;3.90;99.90;;;;;;4983737;28;20174;-86
2020/12/06 00:10:07;;;;;;;1999.90;999.90;;;3.80;99.90;;;;;;4984019;28;20198;-86
2020/12/06 00:12:39;;;;;;;1999.90;999.90;;;3.80;99.90;;;;;;4966555;28;20170;-86
2020/12/06 00:15:09;;;;;;;1999.90;999.90;;;3.80;99.90;;;;;;4982505;28;20167;-86
2020/12/06 00:17:35;;;;;;;1999.90;999.90;;;3.80;99.90;;;;;;4983288;28;20179;-86
2020/12/06 00:20:11;;;;;;;1999.90;999.90;;;3.90;99.90;;;;;;4982748;28;20250;-86
2020/12/06 00:22:40;;;;;;;1999.90;999.90;;;3.80;99.90;;;;;;4981945;28;20402;-86
2020/12/06 00:25:09;;;;;;;1999.90;999.90;;;3.80;99.90;;;;;;4964880;28;20262;-85
2020/12/06 00:27:35;;;;;;;1999.90;999.90;;;3.80;99.90;;;;;;4981800;28;20564;-86
2020/12/06 00:30:05;;;;;;;1999.90;999.90;;;3.80;99.90;;;;;;4981862;28;20190;-85
2020/12/06 00:32:31;;;;;;;1999.90;999.90;;;3.80;99.90;;;;;;4966248;28;20207;-86
2020/12/06 00:34:57;;;;;;;1999.90;999.90;;;3.80;99.90;;;;;;4985019;28;20194;-86
2020/12/06 00:37:23;;;;;;;1999.90;999.90;;;3.80;99.90;;;;;;4982908;28;20437;-86
2020/12/06 00:39:52;;;;;;;1999.90;999.90;;;3.70;99.90;;;;;;4985165;28;20231;-86
2020/12/06 00:42:22;;;;;;;1999.90;999.90;;;3.80;99.90;;;;;;4984082;28;20242;-86
2020/12/06 00:44:51;;;;;;;1999.90;999.90;;;3.80;99.90;;;;;;4967201;28;20198;-86
2020/12/06 00:47:17;;;;;;;1999.90;999.90;;;3.80;99.90;;;;;;4967912;28;20199;-86
2020/12/06 00:49:46;;;;;;;1999.90;999.90;;;3.80;99.90;;;;;;4966927;28;20178;-86
2020/12/06 00:52:22;;;;;;;1999.90;999.90;;;3.80;99.90;;;;;;4982895;28;20219;-86
2020/12/06 00:54:53;;;;;;;1999.90;999.90;;;3.80;99.90;;;;;;4984898;28;20183;-86
2020/12/06 00:57:19;;;;;;;1999.90;999.90;;;3.80;99.90;;;;;;4966740;28;20623;-86
2020/12/06 00:59:45;;;;;;;1999.90;999.90;;;3.80;99.90;;;;;;4983603;28;20202;-86
2020/12/06 01:02:11;;;;;;;1999.90;999.90;;;3.90;99.90;;;;;;4982756;28;20419;-86
2020/12/06 01:04:37;;;;;;;1999.90;999.90;;;3.90;99.90;;;;;;4982966;28;20423;-86
2020/12/06 01:07:03;;;;;;;1999.90;999.90;;;3.80;99.90;;;;;;4980434;28;20643;-86
2020/12/06 01:09:31;;;;;;;1999.90;999.90;;;3.90;99.90;;;;;;4963254;28;20180;-86
2020/12/06 01:11:58;;;;;;;1999.90;999.90;;;3.80;99.90;;;;;;4963975;28;20218;-85
2020/12/06 01:14:24;;;;;;;1999.90;999.90;;;3.90;99.90;;;;;;4981223;28;20191;-86
2020/12/06 01:16:51;;;;;;;1999.90;999.90;;;3.90;99.90;;;;;;4963109;28;20225;-86
2020/12/06 01:19:20;;;;;;;1999.90;999.90;;;4.00;99.90;;;;;;4980662;28;20254;-86
2020/12/06 01:21:53;;;;;;;1999.90;999.90;;;3.90;99.90;;;;;;4963938;28;20193;-86
2020/12/06 01:24:19;;;;;;;1999.90;999.90;;;4.00;99.90;;;;;;4979871;28;20166;-86
2020/12/06 01:26:49;;;;;;;1999.90;999.90;;;4.00;99.90;;;;;;4978389;28;20182;-86
2020/12/06 01:29:15;;;;;;;1999.90;999.90;;;3.90;99.90;;;;;;4980495;28;20218;-86
2020/12/06 01:31:50;;;;;;;1999.90;999.90;;;3.90;99.90;;;;;;4980250;28;20167;-86
2020/12/06 01:34:17;;;;;;;1999.90;999.90;;;3.80;99.90;;;;;;4979834;28;20276;-86
2020/12/06 01:36:43;;;;;;;1999.90;999.90;;;3.80;99.90;;;;;;4980563;28;20305;-86
2020/12/06 01:39:09;;;;;;;1999.90;999.90;;;3.80;99.90;;;;;;4978752;28;20206;-86
2020/12/06 01:41:35;;;;;;;1999.90;999.90;;;3.80;99.90;;;;;;4962811;28;20171;-86
2020/12/06 01:44:03;;;;;;;1999.90;999.90;;;3.90;99.90;;;;;;4980223;28;20399;-86
2020/12/06 01:46:30;;;;;;;1999.90;999.90;;;3.90;99.90;;;;;;4980176;28;20246;-86
2020/12/06 01:48:55;;;;;;;1999.90;999.90;;;3.90;99.90;;;;;;4979469;28;20198;-86
2020/12/06 01:51:23;;;;;;;1999.90;999.90;;;3.90;99.90;;;;;;4978083;28;20190;-86
2020/12/06 01:53:50;;;;;;;1999.90;999.90;;;4.00;99.90;;;;;;4962363;28;20202;-86
2020/12/06 01:56:17;;;;;;;1999.90;999.90;;;4.00;99.90;;;;;;4979430;28;20163;-86
2020/12/06 01:58:46;;;;;;;1999.90;999.90;;;3.90;99.90;;;;;;4978184;28;20172;-86
2020/12/06 02:01:12;;;;;;;1999.90;999.90;;;3.80;99.90;;;;;;4979358;28;20254;-86
2020/12/06 02:03:38;;;;;;;1999.90;999.90;;;3.70;99.90;;;;;;4979174;28;20166;-85
2020/12/06 02:06:05;;;;;;;1999.90;999.90;;;3.70;99.90;;;;;;4980204;28;20402;-86
2020/12/06 02:08:31;;;;;;;1999.90;999.90;;;3.80;99.90;;;;;;4962922;28;20167;-86
2020/12/06 02:10:57;;;;;;;1999.90;999.90;;;3.70;99.90;;;;;;4962633;28;20172;-86
2020/12/06 02:13:23;;;;;;;1999.90;999.90;;;3.70;99.90;;;;;;4978812;28;20195;-86
2020/12/06 02:18:50;;;;;;;1999.90;999.90;;;3.70;99.90;;;;;;4242594;26;20206;-81
2020/12/06 02:21:48;;;;;;;1999.90;999.90;;;3.60;99.90;;;;;;4972175;28;20148;-81
2020/12/06 02:24:41;;;;;;;1999.90;999.90;;;3.60;99.90;;;;;;4975888;28;20657;-81
2020/12/06 02:27:33;;;;;;;1999.90;999.90;;;3.60;99.90;;;;;;4976350;28;20171;-81
2020/12/06 02:30:25;;;;;;;1999.90;999.90;;;3.60;99.90;;;;;;4969176;28;20155;-81
2020/12/06 02:33:16;;;;;;;1999.90;999.90;;;3.60;99.90;;;;;;4976047;28;20181;-81
2020/12/06 02:36:26;;;;;;;1999.90;999.90;;;3.60;99.90;;;;;;4967670;28;20250;-82
2020/12/06 02:42:33;;;;;;;1999.90;999.90;;;3.70;99.90;;;;;;4955677;28;20186;-82
2020/12/06 02:45:06;;;;;;;1999.90;999.90;;;3.70;99.90;;;;;;4967383;28;20186;-82
2020/12/06 02:47:43;;;;;;;1999.90;999.90;;;3.70;99.90;;;;;;4962493;28;20219;-82
2020/12/06 02:50:58;;;;;;;1999.90;999.90;;;3.70;99.90;;;;;;4980166;28;20657;-82
2020/12/06 02:53:55;;;;;;;1999.90;999.90;;;3.80;99.90;;;;;;4976760;28;20201;-82
2020/12/06 02:56:39;;;;;;;1999.90;999.90;;;3.80;99.90;;;;;;4956040;28;20532;-82
2020/12/06 02:59:15;;;;;;;1999.90;999.90;;;3.80;99.90;;;;;;4980199;28;20154;-82
2020/12/06 03:02:09;;;;;;;1999.90;999.90;;;3.80;99.90;;;;;;4962363;28;20189;-82
2020/12/06 03:04:48;;;;;;;1999.90;999.90;;;3.90;99.90;;;;;;4978507;28;20179;-82
2020/12/06 03:07:40;;;;;;;;;;;;;;;;;;;;;
2020/12/06 03:10:16;;;;;;;1999.90;999.90;;;3.80;99.90;;;;;;4979711;28;20254;-82
2020/12/06 03:13:07;;;;;;;1999.90;999.90;;;3.80;99.90;;;;;;4979680;28;20177;-82
2020/12/06 03:16:17;;;;;;;1999.90;999.90;;;3.80;99.90;;;;;;4962149;28;20171;-81
2020/12/06 03:18:44;;;;;;;1999.90;999.90;;;3.70;99.90;;;;;;4963948;28;20219;-81
2020/12/06 03:21:32;;;;;;;1999.90;999.90;;;3.70;99.90;;;;;;4979799;28;20191;-82
2020/12/06 03:24:19;;;;;;;1999.90;999.90;;;3.70;99.90;;;;;;4979608;28;20171;-82
2020/12/06 03:27:01;;;;;;;1999.90;999.90;;;3.70;99.90;;;;;;4962380;28;20179;-82
2020/12/06 03:29:58;;;;;;;1999.90;999.90;;;3.70;99.90;;;;;;4979471;28;20171;-82
2020/12/06 03:32:48;;;;;;;1999.90;999.90;;;3.80;99.90;;;;;;4962910;28;20322;-82
2020/12/06 03:36:17;;;;;;;1999.90;999.90;;;3.80;99.90;;;;;;4963491;28;20171;-82
2020/12/06 03:39:00;;;;;;;1999.90;999.90;;;3.80;99.90;;;;;;4979491;28;20231;-82
2020/12/06 03:41:51;;;;;;;1999.90;999.90;;;3.80;99.90;;;;;;4979840;28;20695;-82
2020/12/06 03:44:40;;;;;;;1999.90;999.90;;;3.80;99.90;;;;;;4979738;28;20159;-82
2020/12/06 03:47:20;;;;;;;1999.90;999.90;;;3.70;99.90;;;;;;4963034;28;20187;-82
2020/12/06 03:50:11;;;;;;;1999.90;999.90;;;3.80;99.90;;;;;;4979184;28;20635;-82
2020/12/06 03:53:14;;;;;;;1999.90;999.90;;;3.70;99.90;;;;;;4979486;28;20179;-82
2020/12/06 03:56:01;;;;;;;1999.90;999.90;;;3.80;99.90;;;;;;4979267;28;20266;-82
2020/12/06 03:58:57;;;;;;;1999.90;999.90;;;3.80;99.90;;;;;;4961004;28;20178;-82
2020/12/06 04:01:40;;;;;;;1999.90;999.90;;;3.80;99.90;;;;;;4979095;28;20171;-82
2020/12/06 04:04:26;;;;;;;1999.90;999.90;;;3.80;99.90;;;;;;4961764;28;20179;-81
2020/12/06 04:07:08;;;;;;;1999.90;999.90;;;3.80;99.90;;;;;;4979073;28;20187;-82
2020/12/06 04:09:51;;;;;;;1999.90;999.90;;;3.80;99.90;;;;;;4979351;28;20147;-82
2020/12/06 04:12:32;;;;;;;1999.90;999.90;;;3.80;99.90;;;;;;4978589;28;20234;-82
2020/12/06 04:15:14;;;;;;;1999.90;999.90;;;3.80;99.90;;;;;;4961590;28;20254;-82
2020/12/06 04:17:50;;;;;;;1999.90;999.90;;;3.80;99.90;;;;;;4978775;28;20175;-82
2020/12/06 04:20:44;;;;;;;1999.90;999.90;;;3.90;99.90;;;;;;4961716;28;20163;-82
2020/12/06 04:23:09;;;;;;;1999.90;999.90;;;3.90;99.90;;;;;;4978320;28;20247;-82
2020/12/06 04:25:44;;;;;;;1999.90;999.90;;;3.80;99.90;;;;;;4961977;28;20205;-82
2020/12/06 04:28:28;;;;;;;1999.90;999.90;;;3.90;99.90;;;;;;4978943;28;20206;-81
2020/12/06 04:33:55;;;;;;;1999.90;999.90;;;4.00;99.90;;;;;;4971293;28;20236;-81
2020/12/06 04:36:36;;;;;;;;;;;;;;;;;;;;;
2020/12/06 04:39:48;;;;;;;1999.90;999.90;;;3.90;99.90;;;;;;4978267;28;20174;-82
2020/12/06 04:43:04;;;;;;;1999.90;999.90;;;4.00;99.90;;;;;;4918112;29;20230;-82
2020/12/06 04:45:38;;;;;;;1999.90;999.90;;;4.00;99.90;;;;;;4960730;28;20167;-81
2020/12/06 04:48:14;;;;;;;1999.90;999.90;;;4.00;99.90;;;;;;4978014;28;20239;-82
2020/12/06 04:51:18;;;;;;;1999.90;999.90;;;4.00;99.90;;;;;;4977979;28;20604;-81
2020/12/06 04:54:10;;;;;;;1999.90;999.90;;;4.10;99.90;;;;;;4977438;28;20179;-82
2020/12/06 04:56:54;;;;;;;1999.90;999.90;;;4.10;99.90;;;;;;4959747;28;20182;-82
2020/12/06 04:59:40;;;;;;;1999.90;999.90;;;4.10;99.90;;;;;;4960527;28;20312;-81
2020/12/06 05:02:31;;;;;;;1999.90;999.90;;;4.10;99.90;;;;;;4977831;28;20174;-82
2020/12/06 05:05:09;;;;;;;1999.90;999.90;;;4.10;99.90;;;;;;4960060;28;20175;-81
2020/12/06 05:07:56;;;;;;;;;;;;;;;;;;;;;
2020/12/06 05:10:37;;;;;;;1999.90;999.90;;;4.10;99.90;;;;;;4976844;28;20572;-82
2020/12/06 05:13:38;;;;;;;1999.90;999.90;;;4.10;99.90;;;;;;4977245;28;20177;-82
2020/12/06 05:16:14;;;;;;;1999.90;999.90;;;4.10;99.90;;;;;;4976285;28;20182;-82
2020/12/06 05:19:06;;;;;;;1999.90;999.90;;;4.10;99.90;;;;;;4996697;28;20208;-82
2020/12/06 05:21:57;;;;;;;1999.90;999.90;;;4.10;99.90;;;;;;4996609;28;20221;-81
2020/12/06 05:24:50;;;;;;;1999.90;999.90;;;4.10;99.90;;;;;;4996331;28;20563;-82
2020/12/06 05:27:33;;;;;;;1999.90;999.90;;;4.10;99.90;;;;;;4980636;28;20174;-81
2020/12/06 05:30:14;;;;;;;1999.90;999.90;;;4.00;99.90;;;;;;4996175;28;20166;-81
2020/12/06 05:32:45;;;;;;;1999.90;999.90;;;4.10;99.90;;;;;;4979962;28;20217;-82
2020/12/06 05:35:28;;;;;;;1999.90;999.90;;;4.10;99.90;;;;;;4996721;28;20682;-81
2020/12/06 05:37:56;;;;;;;1999.90;999.90;;;4.10;99.90;;;;;;4977905;28;20178;-82
2020/12/06 05:40:35;;;;;;;1999.90;999.90;;;4.10;99.90;;;;;;4997021;28;20236;-82
2020/12/06 05:43:06;;;;;;;1999.90;999.90;;;4.10;99.90;;;;;;4979067;28;20546;-82
2020/12/06 05:45:38;;;;;;;1999.90;999.90;;;4.20;99.90;;;;;;4996762;28;20174;-82
2020/12/06 05:48:34;;;;;;;1999.90;999.90;;;4.20;99.90;;;;;;4997216;28;20171;-82
2020/12/06 05:51:34;;;;;;;1999.90;999.90;;;4.10;99.90;;;;;;4976860;28;20175;-82
2020/12/06 05:54:24;;;;;;;1999.90;999.90;;;4.10;99.90;;;;;;4963874;28;20210;-82
2020/12/06 05:56:56;;;;;;;1999.90;999.90;;;4.10;99.90;;;;;;4979587;28;20733;-82
2020/12/06 05:59:23;;;;;;;1999.90;999.90;;;4.20;99.90;;;;;;4996633;28;20166;-82
2020/12/06 06:02:03;;;;;;;1999.90;999.90;;;4.10;99.90;;;;;;4996465;28;20166;-82
2020/12/06 06:05:35;;;;;;;1999.90;999.90;;;4.10;99.90;;;;;;4996696;28;20150;-82
2020/12/06 06:08:03;;;;;;;1999.90;999.90;;;4.10;99.90;;;;;;4986567;28;20721;-82
2020/12/06 06:10:36;;;;;;;1999.90;999.90;;;4.20;99.90;;;;;;4978714;28;20166;-82
2020/12/06 06:14:02;;;;;;;1999.90;999.90;;;4.20;99.90;;;;;;4978450;28;20167;-81
2020/12/06 06:16:38;;;;;;;1999.90;999.90;;;4.20;99.90;;;;;;4994361;28;20266;-82
2020/12/06 06:19:12;;;;;;;1999.90;999.90;;;4.10;99.90;;;;;;4979005;28;20211;-81
2020/12/06 06:21:44;;;;;;;1999.90;999.90;;;4.10;99.90;;;;;;4999959;28;20146;-81
2020/12/06 06:24:31;;;;;;;1999.90;999.90;;;4.10;99.90;;;;;;5000506;28;20274;-81
2020/12/06 06:27:24;;;;;;;1999.90;999.90;;;4.10;99.90;;;;;;5000514;28;20530;-81
2020/12/06 06:30:13;;;;;;;1999.90;999.90;;;4.10;99.90;;;;;;4974935;28;20182;-81
2020/12/06 06:32:57;;;;;;;1999.90;999.90;;;4.10;99.90;;;;;;5000065;28;20513;-81
2020/12/06 06:35:26;;;;;;;1999.90;999.90;;;4.10;99.90;;;;;;5000011;28;20573;-81
2020/12/06 06:38:01;;;;;;;1999.90;999.90;;;4.20;99.90;;;;;;4999558;28;20170;-81
2020/12/06 06:41:21;;;;;;;1999.90;999.90;;;4.10;99.90;;;;;;4982190;28;20206;-81
2020/12/06 06:44:13;;;;;;;1999.90;999.90;;;4.10;99.90;;;;;;4999588;28;20542;-81
2020/12/06 06:47:22;;;;;;;1999.90;999.90;;;4.20;99.90;;;;;;4981492;28;20175;-81
2020/12/06 06:50:01;;;;;;;1999.90;999.90;;;4.10;99.90;;;;;;4998911;28;20186;-81
2020/12/06 06:53:12;;;;;;;1999.90;999.90;;;4.20;99.90;;;;;;4982418;28;20174;-81
2020/12/06 06:56:29;;;;;;;1999.90;999.90;;;4.10;99.90;;;;;;4999476;28;20289;-81
2020/12/06 06:59:14;;;;;;;1999.90;999.90;;;4.10;99.90;;;;;;4998626;28;20186;-81
2020/12/06 07:02:20;;;;;;;1999.90;999.90;;;4.10;99.90;;;;;;4982099;28;20585;-81
2020/12/06 07:04:54;;;;;;;1999.90;999.90;;;4.10;99.90;;;;;;4999067;28;20189;-82
2020/12/06 07:07:46;;;;;;;1999.90;999.90;;;4.10;99.90;;;;;;4984072;28;20185;-83
2020/12/06 07:10:49;;;;;;;1999.90;999.90;;;4.00;99.90;;;;;;4999377;28;20151;-80
2020/12/06 07:13:27;;;;;;;1999.90;999.90;;;4.00;99.90;;;;;;4982006;28;20175;-81
2020/12/06 07:19:55;;;;;;;1999.90;999.90;;;4.10;99.90;;;;;;4994243;28;20185;-82
2020/12/06 07:22:56;;;;;;;1999.90;999.90;;;4.00;99.90;;;;;;4999014;28;20589;-82
2020/12/06 07:25:56;;;;;;;1999.90;999.90;;;4.10;99.90;;;;;;4981785;28;20163;-82
2020/12/06 07:28:52;;;;;;;1999.90;999.90;;;4.00;99.90;;;;;;4999030;28;20249;-82
2020/12/06 07:31:38;;;;;;;1999.90;999.90;;;4.00;99.90;;;;;;4978638;28;20189;-82
2020/12/06 07:34:20;;;;;;;1999.90;999.90;;;4.00;99.90;;;;;;4981146;28;20289;-82
2020/12/06 07:36:58;;;;;;;1999.90;999.90;;;4.00;99.90;;;;;;4999440;28;20213;-82
2020/12/06 07:40:01;;;;;;;1999.90;999.90;;;4.00;99.90;;;;;;4981225;28;20170;-82
2020/12/06 07:42:54;;;;;;;1999.90;999.90;;;4.00;99.90;;;;;;4999214;28;20143;-82
2020/12/06 07:45:49;;;;;;;1999.90;999.90;;;4.10;99.90;;;;;;4989342;28;20178;-82
2020/12/06 07:48:27;;;;;;;1999.90;999.90;;;4.00;99.90;;;;;;4981231;28;20222;-82
2020/12/06 07:50:58;;;;;;;1999.90;999.90;;;4.00;99.90;;;;;;4998864;28;20150;-82
2020/12/06 07:53:24;;;;;;;1999.90;999.90;;;3.90;99.90;;;;;;4998182;28;20241;-81
2020/12/06 07:56:19;;;;;;;1999.90;999.90;;;3.90;99.90;;;;;;4999082;28;20197;-81
2020/12/06 07:59:09;;;;;;;1999.90;999.90;;;4.00;99.90;;;;;;4997505;28;20170;-81
2020/12/06 08:01:42;;;;;;;1999.90;999.90;;;4.10;99.90;;;;;;4998716;28;20524;-81
2020/12/06 08:04:56;;;;;;;;;;;;;;;;;;;;;
2020/12/06 08:07:45;;;;;;;1999.90;999.90;;;4.10;99.90;;;;;;4998589;28;20177;-81
2020/12/06 08:10:24;;;;;;;1999.90;999.90;;;4.10;99.90;;;;;;4981189;28;20174;-81
2020/12/06 08:13:27;;;;;;;1999.90;999.90;;;4.20;99.90;;;;;;4999134;28;20151;-81
2020/12/06 08:18:24;;;;;;;1999.90;999.90;;;4.40;99.90;;;;;;4979657;28;20199;-84
2020/12/06 08:20:54;;;;;;;1999.90;999.90;;;4.40;99.90;;;;;;4980674;28;20190;-84
2020/12/06 08:23:39;;;;;;;1999.90;999.90;;;4.40;99.90;;;;;;4963778;28;20175;-84
2020/12/06 08:26:06;;;;;;;1999.90;999.90;;;4.50;99.90;;;;;;4981841;28;20164;-85
2020/12/06 08:28:32;;;;;;;1999.90;999.90;;;4.50;99.90;;;;;;4981332;28;20168;-84
2020/12/06 08:30:58;;;;;;;1999.90;999.90;;;4.50;99.90;;;;;;4981406;28;20175;-85
2020/12/06 08:33:28;;;;;;;1999.90;999.90;;;4.60;99.90;;;;;;4981165;28;20195;-85
2020/12/06 08:35:58;;;;;;;1999.90;999.90;;;4.60;99.90;;;;;;4964229;28;20178;-85
2020/12/06 08:38:33;;;;;;;1999.90;999.90;;;4.50;99.90;;;;;;4963796;28;20192;-85
2020/12/06 08:41:28;;;;;;;1999.90;999.90;;;4.50;99.90;;;;;;4980673;28;20167;-84
2020/12/06 08:44:01;;;;;;;1999.90;999.90;;;4.60;99.90;;;;;;4976289;28;20183;-84
2020/12/06 08:46:26;;;;;;;1999.90;999.90;;;4.60;99.90;;;;;;4963484;28;20182;-84
2020/12/06 08:48:59;;;;;;;1999.90;999.90;;;4.60;99.90;;;;;;4980913;28;20167;-84
2020/12/06 08:51:39;;;;;;;1999.90;999.90;;;4.60;99.90;;;;;;4964001;28;20409;-85
2020/12/06 08:54:08;;;;;;;1999.90;999.90;;;4.70;99.90;;;;;;4979049;28;20195;-84
2020/12/06 08:56:35;;;;;;;1999.90;999.90;;;4.70;99.90;;;;;;4963840;28;20223;-84
2020/12/06 08:59:14;;;;;;;1999.90;999.90;;;4.80;99.90;;;;;;4980784;28;20167;-85
2020/12/06 09:01:49;;;;;;;1999.90;999.90;;;4.80;99.90;;;;;;4980602;28;20166;-84
2020/12/06 09:04:15;;;;;;;1999.90;999.90;;;4.90;99.90;;;;;;4980718;28;20190;-84
2020/12/06 09:06:42;;;;;;;1999.90;999.90;;;4.90;99.90;;;;;;4980206;28;20693;-84
2020/12/06 09:09:07;;;;;;;1999.90;999.90;;;4.90;99.90;;;;;;4963264;28;20508;-85
2020/12/06 09:11:33;;;;;;;1999.90;999.90;;;5.00;99.90;;;;;;4980366;28;20182;-84
2020/12/06 09:14:02;;;;;;;1999.90;999.90;;;5.00;99.90;;;;;;4980081;28;20438;-85
2020/12/06 09:16:31;;;;;;;1999.90;999.90;;;5.00;99.90;;;;;;4962584;28;20429;-85
2020/12/06 09:18:57;;;;;;;1999.90;999.90;;;5.10;99.90;;;;;;4979521;28;20671;-84
2020/12/06 09:21:23;;;;;;;1999.90;999.90;;;5.20;99.90;;;;;;4980430;28;20193;-84
2020/12/06 09:23:49;;;;;;;1999.90;999.90;;;5.20;99.90;;;;;;4979196;28;20206;-84
2020/12/06 09:26:15;;;;;;;1999.90;999.90;;;5.20;99.90;;;;;;4981001;28;20411;-84
2020/12/06 09:28:41;;;;;;;1999.90;999.90;;;5.20;99.90;;;;;;4980558;28;20414;-84
2020/12/06 09:31:07;;;;;;;1999.90;999.90;;;5.20;99.90;;;;;;4980648;28;20623;-84
2020/12/06 09:33:33;;;;;;;1999.90;999.90;;;5.30;99.90;;;;;;4980366;28;20198;-84
2020/12/06 09:35:58;;;;;;;1999.90;999.90;;;5.30;99.90;;;;;;4980832;28;20415;-84
2020/12/06 09:38:25;;;;;;;1999.90;999.90;;;5.30;99.90;;;;;;4980489;28;20454;-84
2020/12/06 09:40:51;;;;;;;1999.90;999.90;;;5.40;99.90;;;;;;4980270;28;20151;-84
2020/12/06 09:43:17;;;;;;;1999.90;999.90;;;5.40;99.90;;;;;;4962830;28;20170;-84
2020/12/06 09:45:43;;;;;;;1999.90;999.90;;;5.40;99.90;;;;;;4980445;28;20174;-84
2020/12/06 09:48:09;;;;;;;1999.90;999.90;;;5.50;99.90;;;;;;4980370;28;20249;-85
2020/12/06 09:50:36;;;;;;;1999.90;999.90;;;5.50;99.90;;;;;;4980302;28;20164;-84
2020/12/06 09:53:02;;;;;;;1999.90;999.90;;;5.50;99.90;;;;;;4962689;28;20181;-84
2020/12/06 09:55:28;;;;;;;1999.90;999.90;;;5.50;99.90;;;;;;4979375;28;20250;-85
2020/12/06 09:57:55;;;;;;;1999.90;999.90;;;5.50;99.90;;;;;;4979900;28;20160;-84
2020/12/06 10:00:20;;;;;;;1999.90;999.90;;;5.60;99.90;;;;;;4978332;28;20171;-84
2020/12/06 10:02:48;;;;;;;1999.90;999.90;;;5.60;99.90;;;;;;4979660;28;20203;-84
2020/12/06 10:05:45;;;;;;;1999.90;999.90;;;5.60;99.90;;;;;;4978069;28;20171;-84
2020/12/06 10:08:22;;;;;;;1999.90;999.90;;;5.60;99.90;;;;;;4949651;28;20170;-84
2020/12/06 10:10:51;;;;;;;1999.90;999.90;;;5.70;99.90;;;;;;4978599;28;20163;-84
2020/12/06 10:13:16;;;;;;;1999.90;999.90;;;5.70;99.90;;;;;;4961855;28;20265;-85
2020/12/06 10:15:50;;;;;;;1999.90;999.90;;;5.80;99.90;;;;;;4962843;28;20193;-84
2020/12/06 10:18:16;;;;;;;1999.90;999.90;;;5.80;99.90;;;;;;4979824;28;20543;-84
2020/12/06 10:20:42;;;;;;;1999.90;999.90;;;5.90;99.90;;;;;;4977624;28;20254;-84
2020/12/06 10:23:13;;;;;;;1999.90;999.90;;;6.00;99.90;;;;;;4977933;28;20639;-85
2020/12/06 10:25:51;;;;;;;;;;;;;;;;;;;;;
2020/12/06 10:28:20;;;;;;;1999.90;999.90;;;6.00;99.90;;;;;;4979607;28;20144;-84
2020/12/06 10:30:53;;;;;;;1999.90;999.90;;;6.10;99.90;;;;;;4979456;28;20186;-84
2020/12/06 10:33:29;;;;;;;1999.90;999.90;;;6.20;99.90;;;;;;4962580;28;20612;-85
2020/12/06 10:36:01;;;;;;;1999.90;999.90;;;6.10;99.90;;;;;;4979076;28;20243;-84
2020/12/06 10:38:32;;;;;;;1999.90;999.90;;;6.20;99.90;;;;;;4979335;28;20148;-84
2020/12/06 10:41:01;;;;;;;1999.90;999.90;;;6.20;99.90;;;;;;4979050;28;20164;-84
2020/12/06 10:43:30;;;;;;;1999.90;999.90;;;6.20;99.90;;;;;;4978971;28;20538;-84
2020/12/06 10:45:56;;;;;;;1999.90;999.90;;;6.20;99.90;;;;;;4979684;28;20170;-85
2020/12/06 10:48:25;;;;;;;1999.90;999.90;;;6.20;99.90;;;;;;4979078;28;20163;-85
2020/12/06 10:50:53;;;;;;;1999.90;999.90;;;6.10;99.90;;;;;;4979556;28;20164;-85
2020/12/06 10:53:19;;;;;;;1999.90;999.90;;;6.10;99.90;;;;;;4979417;28;20171;-85
2020/12/06 10:55:48;;;;;;;1999.90;999.90;;;6.20;99.90;;;;;;4961496;28;20654;-85
2020/12/06 10:58:46;;;;;;;1999.90;999.90;;;6.20;99.90;;;;;;4962300;28;20167;-85
2020/12/06 11:01:12;;;;;;;1999.90;999.90;;;6.20;99.90;;;;;;4979779;28;20159;-85
2020/12/06 11:03:38;;;;;;;1999.90;999.90;;;6.40;99.90;;;;;;4978021;28;20171;-85
2020/12/06 11:06:03;;;;;;;1999.90;999.90;;;6.40;99.90;;;;;;4975893;28;20178;-85
2020/12/06 11:08:29;;;;;;;1999.90;999.90;;;6.50;99.90;;;;;;4979783;28;20315;-85
2020/12/06 11:10:55;;;;;;;1999.90;999.90;;;6.40;99.90;;;;;;4963161;28;20171;-85
2020/12/06 11:13:21;;;;;;;1999.90;999.90;;;6.40;99.90;;;;;;4963185;28;20418;-85
2020/12/06 11:15:46;;;;;;;1999.90;999.90;;;6.40;99.90;;;;;;4963053;28;20246;-85
2020/12/06 11:18:12;;;;;;;1999.90;999.90;;;6.40;99.90;;;;;;4980210;28;20187;-85
2020/12/06 11:20:38;;;;;;;1999.90;999.90;;;6.40;99.90;;;;;;4979981;28;20309;-85
2020/12/06 11:23:03;;;;;;;1999.90;999.90;;;6.40;99.90;;;;;;4980292;28;20174;-85
2020/12/06 11:25:29;;;;;;;1999.90;999.90;;;6.40;99.90;;;;;;4980025;28;20201;-85
2020/12/06 11:27:55;;;;;;;1999.90;999.90;;;6.30;99.90;;;;;;4980019;28;20231;-85
2020/12/06 11:30:20;;;;;;;1999.90;999.90;;;6.30;99.90;;;;;;4980045;28;20226;-84
2020/12/06 11:32:46;;;;;;;1999.90;999.90;;;6.20;99.90;;;;;;4979940;28;20175;-85
2020/12/06 11:35:21;;;;;;;1999.90;999.90;;;6.20;99.90;;;;;;4980288;28;20654;-85
2020/12/06 11:38:17;;;;;;;1999.90;999.90;;;6.20;99.90;;;;;;4981081;28;20190;-84
2020/12/06 11:40:44;;;;;;;1999.90;999.90;;;6.20;99.90;;;;;;4963323;28;20247;-85
2020/12/06 11:43:31;;;;;;;1999.90;999.90;;;6.20;99.90;;;;;;4981459;28;20164;-85
2020/12/06 11:46:22;;;;;;;1999.90;999.90;;;6.20;99.90;;;;;;4980799;28;20516;-85
2020/12/06 11:49:27;;;;;;;;;;;;;;;;;;;;;
2020/12/06 11:51:58;;;;;;;1999.90;999.90;;;6.10;99.90;;;;;;4971602;28;20243;-85
2020/12/06 11:54:27;;;;;;;1999.90;999.90;;;6.10;99.90;;;;;;4982998;28;20247;-85
2020/12/06 11:56:55;;;;;;;1999.90;999.90;;;6.10;99.90;;;;;;4983454;28;20171;-85
2020/12/06 11:59:21;;;;;;;1999.90;999.90;;;6.10;99.90;;;;;;4966657;28;20215;-85
2020/12/06 12:01:47;;;;;;;1999.90;999.90;;;6.10;99.90;;;;;;4983807;28;20171;-85
2020/12/06 12:04:12;;;;;;;1999.90;999.90;;;6.10;99.90;;;;;;4983667;28;20163;-85
2020/12/06 12:06:38;;;;;;;1999.90;999.90;;;6.10;99.90;;;;;;4983082;28;20175;-85
2020/12/06 12:09:04;;;;;;;1999.90;999.90;;;6.10;99.90;;;;;;4983530;28;20171;-85
2020/12/06 12:11:30;;;;;;;1999.90;999.90;;;6.10;99.90;;;;;;4984694;28;20195;-85
2020/12/06 12:13:56;;;;;;;1999.90;999.90;;;6.10;99.90;;;;;;4985306;28;20555;-86
2020/12/06 12:16:22;;;;;;;1999.90;999.90;;;6.10;99.90;;;;;;4985662;28;20203;-85
2020/12/06 12:18:48;;;;;;;1999.90;999.90;;;6.20;99.90;;;;;;4986017;28;20561;-85
2020/12/06 12:21:17;;;;;;;1999.90;999.90;;;6.20;99.90;;;;;;4984202;28;20164;-85
2020/12/06 12:23:42;;;;;;;1999.90;999.90;;;6.10;99.90;;;;;;4984439;28;20171;-85
2020/12/06 12:26:08;;;;;;;1999.90;999.90;;;6.20;99.90;;;;;;4984403;28;20661;-85
2020/12/06 12:28:34;;;;;;;1999.90;999.90;;;6.20;99.90;;;;;;4965722;28;20175;-85
2020/12/06 12:31:02;;;;;;;1999.90;999.90;;;6.20;99.90;;;;;;4982369;28;20207;-85
2020/12/06 12:33:28;;;;;;;1999.90;999.90;;;6.20;99.90;;;;;;4981442;28;20199;-85
2020/12/06 12:35:54;;;;;;;1999.90;999.90;;;6.20;99.90;;;;;;4981645;28;20179;-85
2020/12/06 12:38:20;;;;;;;1999.90;999.90;;;6.10;99.90;;;;;;4981829;28;20167;-85
2020/12/06 12:40:45;;;;;;;1999.90;999.90;;;6.10;99.90;;;;;;4982273;28;20176;-85
2020/12/06 12:43:11;;;;;;;1999.90;999.90;;;6.00;99.90;;;;;;4983678;28;20171;-85
2020/12/06 12:45:37;;;;;;;1999.90;999.90;;;6.00;99.90;;;;;;4982605;28;20631;-85
2020/12/06 12:48:04;;;;;;;1999.90;999.90;;;5.90;99.90;;;;;;4982703;28;20250;-85
2020/12/06 12:50:30;;;;;;;1999.90;999.90;;;5.90;99.90;;;;;;4982514;28;20174;-85
2020/12/06 12:52:58;;;;;;;1999.90;999.90;;;5.90;99.90;;;;;;4979557;28;20167;-85
2020/12/06 12:55:27;;;;;;;1999.90;999.90;;;5.90;99.90;;;;;;4963016;28;20194;-85
2020/12/06 12:57:55;;;;;;;1999.90;999.90;;;6.00;99.90;;;;;;4979193;28;20606;-85
2020/12/06 13:00:21;;;;;;;1999.90;999.90;;;6.00;99.90;;;;;;4980487;28;20163;-85
2020/12/06 13:02:56;;;;;;;1999.90;999.90;;;6.00;99.90;;;;;;4978964;28;20167;-85
2020/12/06 13:05:25;;;;;;;1999.90;999.90;;;6.00;99.90;;;;;;4980812;28;20155;-85
2020/12/06 13:07:53;;;;;;;1999.90;999.90;;;6.00;99.90;;;;;;4981290;28;20163;-85
2020/12/06 13:10:19;;;;;;;1999.90;999.90;;;6.00;99.90;;;;;;4980936;28;20167;-85
2020/12/06 13:12:47;;;;;;;1999.90;999.90;;;6.00;99.90;;;;;;4983572;28;20159;-85
2020/12/06 13:15:19;;;;;;;1999.90;999.90;;;6.00;99.90;;;;;;4981890;28;20195;-85
2020/12/06 13:17:45;;;;;;;1999.90;999.90;;;6.00;99.90;;;;;;4979899;28;20209;-85